Subject: Data/NEA/June 1, 98/Voyager/Miller

mike williamson (williams@www1.wheelock.edu)
Thu, 4 Jun 1998 09:19:44 -0400 (EDT)

Voyager II
Port of Departure: N.E. Aquarium
Date:June 1, 1998
School/Org:  WhaleNet
Sea State:  calm
Wave Height:  0-1
Wind Velocity and Direction:  5kts /SW
Air Temp:80F
Cloud Cover:  50%
Visibility:  6nm
High Tide(time):  17:40
Recorders:  Diane Miller

Time, LatN, LongW, Depth(in feet), Species, Number, Grouping, Behavior,
Names, Water Temp.&Density&Salinity

11:46, 42 23N, 70 26.7W, 261, Bp, 2, 1+1, surfacing
11:47, 42 23N, 70 26.7W, 261, Bp, 2, 2, surfacing and 1 diving
11:50, 42 23N, 70 26.7W, 261, Bp, 1, 1, traveling slowly
11:53, 42 23N, 70 26.7W, 261, Bp, 1, 1, surfacing
11:56, 42 23N, 70 26.7W, 261, Mn, 2, 2, surfacing
11:58, 42 23N, 70 26.7W, 261, Mn, 1, 1, diving
12:01, 42 23N, 70 26.7W, 261, Mn, 1, 1, diving
12:02, 42 23N, 70 26.7W, 261, Mn, 1, 1, diving
12:03, 42 23N, 70 26.7W, 261, Mn, 1, 1, surfacing and shallow dive
12:06, 42 23N, 70 26.7W, 261, Mn, 1, 1, diving, Cats Paw?
12:07, 42 23N, 70 26.7W, 261, Mn, 1, 1, surfacing and diving, Cats Paw?
12:09, 42 23N, 70 26.7W, 261, Mn, 1, 1, surfacing and diving, Cats
Paw?
12:10, 42 23N, 70 26.7W, 261, Mn, 1, 1, surfacing x2, Cats Paw?
12:14, 42 23.6N, 70 24.2W, 88.7, Bp, 2, 2, surfacing
12:15, 42 23.6N, 70 24.2W, 88.7, Mn, 1, 1, surfacing
12:16, 42 23.6N, 70 24.2W, 88.7, Mn, 1, 1, surfacing
12:19, 42 23.6N, 70 24.2W, 88.7, Mn, 1, 1, surfacing
12:22, 42 23.6N, 70 24.2W, 88.7, Mn, 1, 1, surfacing
12:26, 42 23.6N, 70 24.2W, 88.7, Mn, 1, 1, surfacing
12:34, 42 24N, 70 24.9W, 90.1, Mn, 2, 2, surfacing,Colt and?
12:35, 42 24N, 70 24.9W, 90.1, Mn, 2, 2, surfacing and
traveling,Colt and?
12:36, 42 24N, 70 24.9W, 90.1, Mn, 1, 1, diving
12:43, 42 24N, 70 24.9W, 90.1, Mn, 1, 1, diving,Colt
12:46, 42 24N, 70 24.9W, 90.1, Mn, 1, 1, surfacing and circling
boat,Colt
13:01, 42 23.7N, 70 26.95W, 122, Mn, 2, 2, diving
13:03, 42 23.7N, 70 26.95W, 133, Mn, 1, 1, diving
13:05, 42 23.7N, 70 26.95W, 133, Bp, 1, 1, diving
13:05, 42 23.7N, 70 26.95W, 133, Mn, 2, 2, surfacing
13:09, 42 23.7N, 70 26.95W, 133, Bp, 2, 2, surfacing
13:11, 42 24.5N, 70 28.6W, 107, Bp, 1, 1, surfacing and diving
13:13, 42 23.7N, 70 26.95W, 133, Mn, 2, 2, diving
13:20, 42 23.7N, 70 26.95W, 133, Mn, 2, 2, diving and
surfacing,mom/calf pair
enter 14:32, 42 20N, 70 55.8W, 53.4

Day Totals:  Hrs:3.75, Bp:8+, Mn:7